Time;durP1;ratioP1;P1;durP2;ratioP2;P2;SDS_P1;SDS_P2;PMS_P1;PMS_P2;Temp;Humidity;BMP_temperature;BMP_pressure;BME280_temperature;BME280_humidity;BME280_pressure;Samples;Min_cycle;Max_cycle;Signal;HPM_P1;HPM_P2
2022/09/15 00:02:20;;;;;;;23.83;13.20;;;15.70;99.90;;;;;;4983444;28;20022;-73
2022/09/15 00:04:45;;;;;;;25.65;12.48;;;15.60;99.90;;;;;;4987276;28;20029;-72
2022/09/15 00:07:11;;;;;;;21.33;12.93;;;15.60;99.90;;;;;;4981006;28;20027;-71
2022/09/15 00:09:39;;;;;;;18.88;12.40;;;15.60;99.90;;;;;;4978479;28;20023;-72
2022/09/15 00:12:05;;;;;;;29.30;13.45;;;15.60;99.90;;;;;;4984793;28;20034;-72
2022/09/15 00:14:30;;;;;;;31.83;12.88;;;15.60;99.90;;;;;;4980897;28;20618;-72
2022/09/15 00:16:58;;;;;;;27.00;13.35;;;15.50;99.90;;;;;;4982861;28;20066;-71
2022/09/15 00:19:24;;;;;;;28.27;14.43;;;15.50;99.90;;;;;;4980412;28;20015;-72
2022/09/15 00:21:50;;;;;;;26.65;14.48;;;15.50;99.90;;;;;;4980487;28;20372;-72
2022/09/15 00:24:18;;;;;;;23.30;12.80;;;15.50;99.90;;;;;;4981513;28;20448;-73
2022/09/15 00:26:43;;;;;;;25.63;13.65;;;15.50;99.90;;;;;;4979911;28;20033;-71
2022/09/15 00:29:09;;;;;;;26.58;13.55;;;15.50;99.90;;;;;;4983029;28;20022;-72
2022/09/15 00:31:35;;;;;;;27.63;13.80;;;15.50;99.90;;;;;;4978414;28;20459;-71
2022/09/15 00:34:01;;;;;;;22.15;13.57;;;15.50;99.90;;;;;;4982720;28;20101;-73
2022/09/15 00:36:27;;;;;;;28.55;14.32;;;15.50;99.90;;;;;;4980082;28;20033;-73
2022/09/15 00:38:56;;;;;;;30.38;14.73;;;15.50;99.90;;;;;;4985453;28;20503;-71
2022/09/15 00:41:23;;;;;;;26.98;15.05;;;15.50;99.90;;;;;;4997275;28;20069;-74
2022/09/15 00:43:58;;;;;;;26.58;13.40;;;15.50;99.90;;;;;;4982044;28;20543;-70
2022/09/15 00:46:35;;;;;;;26.98;14.40;;;15.50;99.90;;;;;;4987199;28;20031;-72
2022/09/15 00:49:20;;;;;;;26.75;13.80;;;15.50;99.90;;;;;;4982486;28;20034;-71
2022/09/15 00:51:58;;;;;;;26.40;14.23;;;15.50;99.90;;;;;;4989095;28;20573;-75
2022/09/15 00:54:31;;;;;;;25.55;14.95;;;15.50;99.90;;;;;;4982492;28;20056;-71
2022/09/15 00:57:03;;;;;;;26.67;14.88;;;15.50;99.90;;;;;;4981686;28;20049;-74
2022/09/15 00:59:34;;;;;;;31.00;15.82;;;15.40;99.90;;;;;;4982990;28;20031;-72
2022/09/15 01:02:13;;;;;;;30.15;15.73;;;15.40;99.90;;;;;;4995723;28;20031;-73
2022/09/15 01:04:41;;;;;;;35.50;15.60;;;15.40;99.90;;;;;;4980706;28;20041;-68
2022/09/15 01:07:20;;;;;;;29.23;15.55;;;15.30;99.90;;;;;;4983847;28;20029;-72
2022/09/15 01:09:59;;;;;;;29.40;15.38;;;15.30;99.90;;;;;;4982325;28;20067;-71
2022/09/15 01:12:26;;;;;;;29.65;14.25;;;15.30;99.90;;;;;;4983923;28;20053;-76
2022/09/15 01:14:54;;;;;;;31.20;15.15;;;15.30;99.90;;;;;;4984811;28;20088;-72
2022/09/15 01:17:43;;;;;;;27.02;15.25;;;15.30;99.90;;;;;;4979152;28;20027;-71
2022/09/15 01:20:29;;;;;;;27.25;15.30;;;15.30;99.90;;;;;;4977610;28;20109;-72
2022/09/15 01:23:10;;;;;;;24.75;15.25;;;15.30;99.90;;;;;;4972911;28;20038;-71
2022/09/15 01:26:03;;;;;;;26.30;16.55;;;15.30;99.90;;;;;;4977051;28;20022;-70
2022/09/15 01:28:29;;;;;;;;;;;15.30;99.90;;;;;;4977156;28;20444;-71
2022/09/15 01:31:20;;;;;;;27.27;15.80;;;15.40;99.90;;;;;;4983857;28;19968;-72
2022/09/15 01:33:59;;;;;;;30.40;16.70;;;15.40;99.90;;;;;;4976525;28;20038;-73
2022/09/15 01:36:35;;;;;;;27.67;15.85;;;15.40;99.90;;;;;;4977375;28;20046;-72
2022/09/15 01:39:14;;;;;;;32.08;16.55;;;15.40;99.90;;;;;;4979871;28;20027;-73
2022/09/15 01:41:55;;;;;;;28.92;16.27;;;15.40;99.90;;;;;;4980474;28;20035;-75
2022/09/15 01:44:33;;;;;;;30.98;16.98;;;15.40;99.90;;;;;;4981013;28;20018;-73
2022/09/15 01:47:03;;;;;;;30.10;17.35;;;15.40;99.90;;;;;;4982163;28;20027;-71
2022/09/15 01:49:36;;;;;;;32.75;16.38;;;15.50;99.90;;;;;;4979357;28;20031;-74
2022/09/15 01:52:02;;;;;;;31.83;17.42;;;15.50;99.90;;;;;;4983955;28;20026;-72
2022/09/15 01:54:34;;;;;;;27.15;15.57;;;15.60;99.90;;;;;;4983778;28;20081;-74
2022/09/15 01:57:04;;;;;;;25.70;16.98;;;15.60;99.90;;;;;;4983472;28;20019;-76
2022/09/15 01:59:36;;;;;;;26.95;16.63;;;15.60;99.90;;;;;;4981046;28;20031;-76
2022/09/15 02:02:11;;;;;;;29.27;16.38;;;15.60;99.90;;;;;;4979566;28;20037;-72
2022/09/15 02:04:47;;;;;;;27.02;15.85;;;15.60;99.90;;;;;;4969626;28;20134;-72
2022/09/15 02:07:43;;;;;;;26.55;16.83;;;15.60;99.90;;;;;;4981623;28;20034;-73
2022/09/15 02:10:16;;;;;;;26.45;16.30;;;15.60;99.90;;;;;;4980093;28;20031;-74
2022/09/15 02:12:59;;;;;;;29.50;16.58;;;15.70;99.90;;;;;;4976464;28;20491;-73
2022/09/15 02:15:36;;;;;;;27.65;15.88;;;15.80;99.90;;;;;;4984853;28;20042;-72
2022/09/15 02:18:05;;;;;;;28.67;17.30;;;15.80;99.90;;;;;;4977859;28;20041;-72
2022/09/15 02:20:48;;;;;;;28.98;17.15;;;15.80;99.90;;;;;;4976854;28;20134;-73
2022/09/15 02:23:26;;;;;;;29.38;17.13;;;15.80;99.90;;;;;;4979459;28;20041;-72
2022/09/15 02:26:03;;;;;;;27.52;16.80;;;15.80;99.90;;;;;;4980805;28;20085;-71
2022/09/15 02:28:33;;;;;;;25.10;15.95;;;15.80;99.90;;;;;;4981295;28;20395;-73
2022/09/15 02:31:04;;;;;;;28.50;16.35;;;15.80;99.90;;;;;;4977878;28;20060;-72
2022/09/15 02:33:36;;;;;;;32.67;16.73;;;15.80;99.90;;;;;;4977138;28;20053;-72
2022/09/15 02:36:02;;;;;;;30.77;15.82;;;15.90;99.90;;;;;;4979661;28;20034;-74
2022/09/15 02:38:34;;;;;;;32.13;17.20;;;15.80;99.90;;;;;;4979412;28;20038;-72
2022/09/15 02:41:04;;;;;;;24.80;15.13;;;15.80;99.90;;;;;;4980754;28;20027;-73
2022/09/15 02:43:33;;;;;;;26.33;16.25;;;15.80;99.90;;;;;;4980540;28;20034;-74
2022/09/15 02:45:59;;;;;;;26.40;16.05;;;15.90;99.90;;;;;;4978299;28;20126;-74
2022/09/15 02:48:24;;;;;;;26.25;15.15;;;15.90;99.90;;;;;;4980185;28;20069;-72
2022/09/15 02:50:50;;;;;;;29.08;15.15;;;16.00;99.90;;;;;;4987281;28;20030;-73
2022/09/15 02:53:16;;;;;;;23.42;14.48;;;15.90;99.90;;;;;;4981336;28;20066;-71
2022/09/15 02:55:41;;;;;;;26.77;15.05;;;16.00;99.90;;;;;;4979464;28;20113;-75
2022/09/15 02:58:07;;;;;;;33.75;15.85;;;16.00;99.90;;;;;;4985637;28;20035;-72
2022/09/15 03:00:33;;;;;;;28.67;15.00;;;16.10;99.90;;;;;;4978177;28;20117;-72
2022/09/15 03:03:00;;;;;;;37.25;15.15;;;16.00;99.90;;;;;;4981729;28;20061;-73
2022/09/15 03:05:28;;;;;;;40.38;15.20;;;16.00;99.90;;;;;;4979404;28;20130;-73
2022/09/15 03:07:55;;;;;;;26.08;15.35;;;16.00;99.90;;;;;;4981292;28;20089;-74
2022/09/15 03:10:22;;;;;;;29.35;16.35;;;15.90;99.90;;;;;;4979463;28;20037;-73
2022/09/15 03:12:53;;;;;;;26.40;15.07;;;15.90;99.90;;;;;;4978040;28;20033;-72
2022/09/15 03:15:22;;;;;;;26.13;13.80;;;15.90;99.90;;;;;;4981636;28;20106;-73
2022/09/15 03:17:50;;;;;;;23.40;13.88;;;15.90;99.90;;;;;;4979157;28;20022;-74
2022/09/15 03:20:20;;;;;;;31.88;14.57;;;16.00;99.90;;;;;;4983476;28;20030;-73
2022/09/15 03:22:45;;;;;;;27.25;13.80;;;16.00;99.90;;;;;;4979568;28;20059;-75
2022/09/15 03:25:13;;;;;;;26.10;14.50;;;16.00;99.90;;;;;;4980669;28;20046;-74
2022/09/15 03:27:39;;;;;;;27.20;15.57;;;16.00;99.90;;;;;;4984739;28;20480;-74
2022/09/15 03:30:06;;;;;;;27.15;14.68;;;16.00;99.90;;;;;;4990325;28;20066;-73
2022/09/15 03:32:32;;;;;;;25.88;13.82;;;16.10;99.90;;;;;;4985979;28;20038;-74
2022/09/15 03:35:00;;;;;;;24.27;13.73;;;16.00;99.90;;;;;;4983701;28;20034;-72
2022/09/15 03:37:26;;;;;;;22.95;14.75;;;16.10;99.90;;;;;;4987352;28;20065;-72
2022/09/15 03:39:51;;;;;;;25.50;14.18;;;16.00;99.90;;;;;;4983936;28;20688;-73
2022/09/15 03:42:18;;;;;;;24.58;14.43;;;16.10;99.90;;;;;;4988281;28;20553;-72
2022/09/15 03:44:44;;;;;;;20.92;13.25;;;16.10;99.90;;;;;;4987706;28;20021;-73
2022/09/15 03:47:09;;;;;;;21.08;12.95;;;16.10;99.90;;;;;;4989092;28;20014;-71
2022/09/15 03:49:35;;;;;;;24.35;12.95;;;16.00;99.90;;;;;;4982160;28;20403;-72
2022/09/15 03:52:06;;;;;;;27.75;14.77;;;16.10;99.90;;;;;;4981634;28;20344;-72
2022/09/15 03:54:31;;;;;;;21.98;13.68;;;16.10;99.90;;;;;;4983052;28;20093;-73
2022/09/15 03:57:02;;;;;;;19.50;12.60;;;16.10;99.90;;;;;;4982400;28;20030;-72
2022/09/15 03:59:28;;;;;;;24.55;13.43;;;16.00;99.90;;;;;;4978145;28;20023;-73
2022/09/15 04:01:53;;;;;;;23.95;12.75;;;16.00;99.90;;;;;;4986627;28;20049;-73
2022/09/15 04:04:21;;;;;;;24.33;13.98;;;16.00;99.90;;;;;;4988551;28;20717;-71
2022/09/15 04:06:49;;;;;;;23.85;13.70;;;16.00;99.90;;;;;;4986556;28;20487;-72
2022/09/15 04:09:15;;;;;;;21.30;12.52;;;16.00;99.90;;;;;;4992901;28;20026;-72
2022/09/15 04:11:41;;;;;;;18.02;12.38;;;16.00;99.90;;;;;;4983629;28;20042;-73
2022/09/15 04:14:07;;;;;;;23.63;12.70;;;16.00;99.90;;;;;;4982280;28;20134;-73
2022/09/15 04:16:33;;;;;;;26.40;13.52;;;16.10;99.90;;;;;;4983595;28;20114;-73
2022/09/15 04:19:01;;;;;;;22.08;12.57;;;16.00;99.90;;;;;;4982448;28;20184;-74
2022/09/15 04:21:26;;;;;;;26.17;12.55;;;15.90;99.90;;;;;;4987380;28;20030;-73
2022/09/15 04:23:55;;;;;;;25.83;12.93;;;15.90;99.90;;;;;;4991665;28;20444;-74
2022/09/15 04:26:26;;;;;;;22.65;12.50;;;15.90;99.90;;;;;;4993253;28;20018;-72
2022/09/15 04:28:52;;;;;;;23.85;12.63;;;15.90;99.90;;;;;;4992530;28;20041;-71
2022/09/15 04:31:21;;;;;;;20.73;11.23;;;15.90;99.90;;;;;;4986861;28;20027;-72
2022/09/15 04:33:47;;;;;;;20.73;11.68;;;15.90;99.90;;;;;;4987976;28;20475;-72
2022/09/15 04:36:21;;;;;;;17.08;11.18;;;15.90;99.90;;;;;;4991186;28;20142;-73
2022/09/15 04:38:47;;;;;;;29.48;11.48;;;15.90;99.90;;;;;;4984514;28;20038;-72
2022/09/15 04:41:13;;;;;;;24.55;12.15;;;15.90;99.90;;;;;;4983807;28;20045;-72
2022/09/15 04:43:43;;;;;;;17.92;11.60;;;15.90;99.90;;;;;;4980114;28;20050;-75
2022/09/15 04:46:11;;;;;;;17.70;10.85;;;15.90;99.90;;;;;;4980212;28;20085;-72
2022/09/15 04:48:37;;;;;;;18.65;11.93;;;16.00;99.90;;;;;;4982400;28;20061;-72
2022/09/15 04:51:06;;;;;;;22.52;11.73;;;16.10;99.90;;;;;;4978900;28;20059;-75
2022/09/15 04:53:37;;;;;;;20.42;11.43;;;16.10;99.90;;;;;;4982001;28;20065;-73
2022/09/15 04:56:06;;;;;;;26.02;11.88;;;16.10;99.90;;;;;;4981127;28;20376;-71
2022/09/15 04:58:49;;;;;;;23.70;11.98;;;16.10;99.90;;;;;;4980962;28;20090;-72
2022/09/15 05:01:26;;;;;;;17.63;11.32;;;16.10;99.90;;;;;;4981728;28;20045;-73
2022/09/15 05:03:52;;;;;;;21.65;11.63;;;16.10;99.90;;;;;;4980615;28;20061;-72
2022/09/15 05:06:23;;;;;;;21.60;11.25;;;16.00;99.90;;;;;;4984234;28;20071;-72
2022/09/15 05:08:51;;;;;;;20.92;11.10;;;16.00;99.90;;;;;;4986544;28;20428;-73
2022/09/15 05:11:18;;;;;;;18.85;11.90;;;16.00;99.90;;;;;;4979673;28;20027;-69
2022/09/15 05:13:44;;;;;;;20.65;11.10;;;16.10;99.90;;;;;;4982655;28;20476;-73
2022/09/15 05:16:13;;;;;;;27.55;11.05;;;16.10;99.90;;;;;;4980192;28;20038;-71
2022/09/15 05:18:41;;;;;;;20.55;11.20;;;16.10;99.90;;;;;;4976544;28;20050;-72
2022/09/15 05:21:09;;;;;;;21.17;11.13;;;16.10;99.90;;;;;;4981044;28;20026;-72
2022/09/15 05:23:35;;;;;;;15.68;10.48;;;16.10;99.90;;;;;;4979560;28;20442;-74
2022/09/15 05:26:07;;;;;;;16.73;10.32;;;16.10;99.90;;;;;;4983780;28;20010;-73
2022/09/15 05:28:36;;;;;;;22.23;10.80;;;16.20;99.90;;;;;;4977448;28;20027;-72
2022/09/15 05:31:11;;;;;;;25.98;10.30;;;16.20;99.90;;;;;;4982793;28;20159;-72
2022/09/15 05:33:38;;;;;;;23.00;11.05;;;16.20;99.90;;;;;;4977221;28;20027;-73
2022/09/15 05:36:05;;;;;;;22.40;9.93;;;16.20;99.90;;;;;;4977552;28;20018;-72
2022/09/15 05:38:31;;;;;;;17.55;9.75;;;16.10;99.90;;;;;;4982256;28;20026;-72
2022/09/15 05:41:04;;;;;;;20.73;10.20;;;16.10;99.90;;;;;;4980891;28;20027;-72
2022/09/15 05:43:31;;;;;;;16.52;9.40;;;16.20;99.90;;;;;;4980003;28;20126;-71
2022/09/15 05:45:57;;;;;;;16.30;9.85;;;16.20;99.90;;;;;;4984081;28;20054;-71
2022/09/15 05:48:23;;;;;;;16.77;9.45;;;16.20;99.90;;;;;;4981543;28;20430;-71
2022/09/15 05:50:53;;;;;;;16.65;9.50;;;16.20;99.90;;;;;;4977490;28;20045;-73
2022/09/15 05:53:20;;;;;;;16.60;9.15;;;16.20;99.90;;;;;;4980697;28;20035;-73
2022/09/15 05:55:46;;;;;;;18.77;8.88;;;16.30;99.90;;;;;;4980407;28;20042;-73
2022/09/15 05:58:12;;;;;;;18.25;9.95;;;16.30;99.90;;;;;;4980734;28;20046;-73
2022/09/15 06:00:40;;;;;;;22.10;9.15;;;16.30;99.90;;;;;;4980474;28;20034;-73
2022/09/15 06:03:07;;;;;;;20.40;9.50;;;16.30;99.90;;;;;;4976383;28;20106;-73
2022/09/15 06:05:32;;;;;;;12.77;8.25;;;16.40;99.90;;;;;;4978943;28;20142;-72
2022/09/15 06:07:58;;;;;;;12.98;8.30;;;16.40;99.90;;;;;;4983173;28;20093;-72
2022/09/15 06:10:26;;;;;;;14.60;9.27;;;16.40;99.90;;;;;;4980763;28;20045;-70
2022/09/15 06:12:53;;;;;;;14.27;8.68;;;16.40;99.90;;;;;;4980394;28;20069;-69
2022/09/15 06:15:20;;;;;;;14.48;8.60;;;16.50;99.90;;;;;;4984484;28;20033;-73
2022/09/15 06:17:48;;;;;;;14.82;8.48;;;16.50;99.90;;;;;;4983172;28;20035;-72
2022/09/15 06:20:14;;;;;;;13.43;8.13;;;16.50;99.90;;;;;;4985468;28;20065;-76
2022/09/15 06:22:42;;;;;;;19.55;7.60;;;16.50;99.90;;;;;;4990863;28;20034;-75
2022/09/15 06:25:12;;;;;;;13.10;7.80;;;16.60;99.90;;;;;;4991670;28;20019;-76
2022/09/15 06:27:42;;;;;;;21.70;7.68;;;16.70;99.90;;;;;;4997278;28;20030;-77
2022/09/15 06:30:09;;;;;;;16.23;8.45;;;16.70;99.90;;;;;;4984498;28;20074;-74
2022/09/15 06:32:35;;;;;;;14.10;7.28;;;16.80;99.90;;;;;;4978538;28;20368;-76
2022/09/15 06:35:05;;;;;;;11.70;7.85;;;16.90;99.90;;;;;;4977659;28;20034;-73
2022/09/15 06:37:32;;;;;;;12.82;7.65;;;16.90;99.90;;;;;;4979482;28;20026;-73
2022/09/15 06:39:58;;;;;;;15.52;7.93;;;17.00;99.90;;;;;;4979313;28;20026;-74
2022/09/15 06:42:23;;;;;;;13.50;7.72;;;17.10;99.90;;;;;;4979388;28;20093;-73
2022/09/15 06:44:49;;;;;;;17.58;7.35;;;17.20;99.90;;;;;;4981413;28;20503;-72
2022/09/15 06:47:15;;;;;;;15.13;7.95;;;17.20;99.90;;;;;;4975262;28;20109;-73
2022/09/15 06:49:43;;;;;;;14.20;6.75;;;17.20;99.90;;;;;;4979272;28;20435;-73
2022/09/15 06:52:08;;;;;;;14.40;7.35;;;17.20;99.90;;;;;;4979939;28;20041;-73
2022/09/15 06:54:37;;;;;;;17.77;7.20;;;17.20;99.90;;;;;;4979267;28;20425;-73
2022/09/15 06:57:02;;;;;;;13.00;7.05;;;17.20;99.90;;;;;;4979421;28;20117;-73
2022/09/15 06:59:28;;;;;;;14.93;7.15;;;17.10;99.90;;;;;;4979436;28;20028;-73
2022/09/15 07:01:56;;;;;;;15.23;7.70;;;17.10;99.90;;;;;;4979113;28;20093;-73
2022/09/15 07:04:22;;;;;;;14.68;7.10;;;17.20;99.90;;;;;;4979382;28;20126;-72
2022/09/15 07:06:49;;;;;;;13.75;6.63;;;17.20;99.90;;;;;;4976823;28;20508;-73
2022/09/15 07:09:15;;;;;;;16.95;6.72;;;17.30;99.90;;;;;;4976553;28;20046;-73
2022/09/15 07:11:40;;;;;;;10.23;5.90;;;17.20;99.90;;;;;;4979991;28;20121;-72
2022/09/15 07:14:06;;;;;;;11.85;5.82;;;17.20;99.90;;;;;;4983364;28;20026;-73
2022/09/15 07:16:32;;;;;;;16.05;6.07;;;17.20;99.90;;;;;;4981731;28;20042;-74
2022/09/15 07:19:00;;;;;;;12.23;6.20;;;17.20;99.90;;;;;;4987207;28;20038;-73
2022/09/15 07:21:26;;;;;;;12.77;5.57;;;17.30;99.90;;;;;;4982143;28;20498;-73
2022/09/15 07:23:56;;;;;;;11.40;5.45;;;17.50;99.90;;;;;;4982969;28;20150;-73
2022/09/15 07:26:27;;;;;;;15.18;5.47;;;17.50;99.90;;;;;;4980159;28;20019;-73
2022/09/15 07:28:55;;;;;;;12.55;4.70;;;17.70;99.90;;;;;;4998220;28;20026;-73
2022/09/15 07:31:23;;;;;;;8.75;4.57;;;17.70;99.90;;;;;;4980304;28;20341;-73
2022/09/15 07:33:51;;;;;;;12.00;4.35;;;17.80;99.90;;;;;;4981449;28;20022;-73
2022/09/15 07:36:17;;;;;;;9.65;3.40;;;17.80;99.90;;;;;;4982114;28;20100;-73
2022/09/15 07:38:45;;;;;;;8.65;4.03;;;17.80;99.90;;;;;;4982966;28;20031;-74
2022/09/15 07:41:22;;;;;;;7.82;3.67;;;17.80;99.90;;;;;;4981458;28;20117;-74
2022/09/15 07:43:52;;;;;;;8.40;3.75;;;17.80;99.90;;;;;;4982682;28;20153;-72
2022/09/15 07:46:19;;;;;;;11.07;3.35;;;17.90;99.90;;;;;;4979863;28;20022;-74
2022/09/15 07:48:50;;;;;;;6.22;2.85;;;17.90;99.90;;;;;;4982643;28;20089;-74
2022/09/15 07:51:16;;;;;;;7.50;2.13;;;17.90;99.90;;;;;;4983249;28;20159;-73
2022/09/15 07:53:44;;;;;;;6.20;2.58;;;17.90;99.90;;;;;;4982209;28;20042;-74
2022/09/15 07:56:10;;;;;;;8.30;1.98;;;17.90;99.90;;;;;;4982550;28;20030;-73
2022/09/15 07:58:35;;;;;;;10.07;2.83;;;17.90;99.90;;;;;;4984666;28;20030;-73
2022/09/15 08:01:08;;;;;;;6.07;3.00;;;17.90;99.90;;;;;;4982350;28;20078;-73
2022/09/15 08:03:35;;;;;;;4.70;3.03;;;18.00;99.90;;;;;;4979188;28;20027;-74
2022/09/15 08:06:02;;;;;;;12.63;5.03;;;18.10;99.90;;;;;;4981952;28;20049;-73
2022/09/15 08:08:31;;;;;;;14.15;5.72;;;18.30;99.90;;;;;;4982968;28;20475;-73
2022/09/15 08:10:58;;;;;;;15.10;8.38;;;18.40;99.90;;;;;;4979680;28;20030;-73
2022/09/15 08:13:26;;;;;;;12.82;5.90;;;18.40;99.90;;;;;;4979883;28;20746;-74
2022/09/15 08:15:52;;;;;;;7.43;4.68;;;18.50;99.90;;;;;;4982197;28;20105;-73
2022/09/15 08:18:17;;;;;;;12.77;5.63;;;18.60;99.90;;;;;;4978523;28;20108;-73
2022/09/15 08:20:43;;;;;;;10.27;5.75;;;18.60;99.90;;;;;;4979850;28;20384;-73
2022/09/15 08:23:10;;;;;;;10.75;6.10;;;18.60;99.90;;;;;;4983233;28;20437;-73
2022/09/15 08:25:37;;;;;;;8.57;6.07;;;18.60;99.90;;;;;;4980610;28;20031;-72
2022/09/15 08:28:03;;;;;;;10.13;6.40;;;18.60;99.90;;;;;;4980413;28;20023;-73
2022/09/15 08:30:29;;;;;;;9.13;5.63;;;18.70;99.90;;;;;;4982500;28;20049;-73
2022/09/15 08:32:54;;;;;;;10.07;5.10;;;18.70;99.90;;;;;;4982673;28;20039;-72
2022/09/15 08:35:22;;;;;;;8.05;5.03;;;18.70;99.90;;;;;;4982572;28;20037;-74
2022/09/15 08:37:48;;;;;;;10.30;5.40;;;18.70;99.90;;;;;;4983353;28;20030;-73
2022/09/15 08:40:19;;;;;;;15.45;5.75;;;18.70;99.90;;;;;;4987490;28;20391;-74
2022/09/15 08:42:47;;;;;;;8.60;4.22;;;18.70;99.90;;;;;;4981036;28;20026;-73
2022/09/15 08:45:40;;;;;;;7.30;4.88;;;18.80;99.90;;;;;;4982033;28;20695;-74
2022/09/15 08:48:12;;;;;;;7.05;3.92;;;18.80;99.90;;;;;;4982345;28;20015;-73
2022/09/15 08:50:45;;;;;;;9.77;4.32;;;18.80;99.90;;;;;;4980703;28;20022;-73
2022/09/15 08:53:18;;;;;;;11.35;4.53;;;18.70;99.90;;;;;;4983177;28;20038;-74
2022/09/15 08:55:47;;;;;;;12.18;4.60;;;18.70;99.90;;;;;;4980073;28;20031;-73
2022/09/15 08:58:23;;;;;;;11.45;4.13;;;18.70;99.90;;;;;;4980606;28;20065;-73
2022/09/15 09:00:54;;;;;;;9.90;3.55;;;18.90;99.90;;;;;;4982704;28;20041;-73
2022/09/15 09:03:41;;;;;;;8.75;4.30;;;19.00;99.90;;;;;;4981254;28;20109;-73
2022/09/15 09:06:16;;;;;;;9.10;3.97;;;19.00;99.90;;;;;;4981902;28;20436;-72
2022/09/15 09:09:06;;;;;;;7.32;3.90;;;19.10;99.90;;;;;;4972160;28;20366;-73
2022/09/15 09:11:52;;;;;;;9.05;3.30;;;19.20;99.90;;;;;;4977339;28;20058;-73
2022/09/15 09:14:38;;;;;;;9.10;3.38;;;19.10;99.90;;;;;;4976405;28;20038;-76
2022/09/15 09:17:22;;;;;;;9.95;3.40;;;19.00;99.90;;;;;;4983444;28;20035;-74
2022/09/15 09:20:21;;;;;;;10.32;3.53;;;19.00;99.90;;;;;;4982928;28;20089;-73
2022/09/15 09:22:52;;;;;;;7.88;3.17;;;18.80;99.90;;;;;;4980379;28;20066;-73
2022/09/15 09:25:19;;;;;;;7.68;3.60;;;18.80;99.90;;;;;;4977173;28;20464;-75
2022/09/15 09:27:48;;;;;;;10.10;3.67;;;18.80;99.90;;;;;;4978332;28;20034;-76
2022/09/15 09:30:26;;;;;;;7.30;3.13;;;18.80;99.90;;;;;;4981031;28;20037;-74
2022/09/15 09:32:56;;;;;;;11.18;3.85;;;18.80;99.90;;;;;;4979011;28;20115;-74
2022/09/15 09:35:30;;;;;;;11.95;3.40;;;18.90;99.90;;;;;;4979240;28;20031;-74
2022/09/15 09:38:01;;;;;;;9.95;3.30;;;19.00;99.90;;;;;;4979759;28;20042;-73
2022/09/15 09:40:30;;;;;;;7.75;2.88;;;19.30;99.90;;;;;;4981901;28;20036;-74
2022/09/15 09:42:56;;;;;;;3.83;1.67;;;19.30;99.90;;;;;;4994065;28;20062;-73
2022/09/15 09:45:22;;;;;;;3.95;0.90;;;19.20;99.90;;;;;;4978495;28;20042;-74
2022/09/15 09:47:48;;;;;;;4.38;1.27;;;18.90;99.90;;;;;;4976478;28;20027;-74
2022/09/15 09:50:44;;;;;;;12.98;1.10;;;18.70;99.90;;;;;;4979945;28;20325;-74
2022/09/15 09:53:29;;;;;;;6.18;1.13;;;18.70;99.90;;;;;;4979979;28;20400;-74
2022/09/15 09:56:21;;;;;;;3.38;0.93;;;18.60;99.90;;;;;;4994623;28;20467;-74
2022/09/15 09:58:47;;;;;;;7.55;1.30;;;18.60;99.90;;;;;;4981349;28;20019;-73
2022/09/15 10:01:18;;;;;;;7.20;1.10;;;18.60;99.90;;;;;;4983898;28;20033;-74
2022/09/15 10:03:44;;;;;;;4.65;1.05;;;18.60;99.90;;;;;;4985316;28;20109;-74
2022/09/15 10:06:18;;;;;;;2.72;1.10;;;18.60;99.90;;;;;;4981173;28;20102;-74
2022/09/15 10:08:58;;;;;;;5.18;1.42;;;18.70;99.90;;;;;;4973172;28;20813;-74
2022/09/15 10:11:46;;;;;;;3.35;1.10;;;18.80;99.90;;;;;;4978869;28;20030;-74
2022/09/15 10:14:35;;;;;;;2.78;0.82;;;18.70;99.90;;;;;;4987195;28;20125;-74
2022/09/15 10:17:15;;;;;;;4.40;1.90;;;18.80;99.90;;;;;;4986669;28;20352;-73
2022/09/15 10:19:48;;;;;;;3.83;1.20;;;19.10;99.90;;;;;;4978986;28;20022;-74
2022/09/15 10:22:36;;;;;;;2.65;0.80;;;19.40;99.90;;;;;;4978977;28;20110;-74
2022/09/15 10:25:21;;;;;;;2.65;1.00;;;19.70;99.90;;;;;;4977598;28;20041;-74
2022/09/15 10:28:08;;;;;;;3.95;1.00;;;19.90;99.90;;;;;;4979837;28;20710;-75
2022/09/15 10:30:37;;;;;;;2.67;0.90;;;20.10;99.90;;;;;;4979921;28;20050;-74
2022/09/15 10:33:23;;;;;;;8.05;1.60;;;20.40;99.90;;;;;;4981660;28;20130;-74
2022/09/15 10:35:52;;;;;;;6.18;2.08;;;20.70;99.90;;;;;;4979505;28;20019;-74
2022/09/15 10:38:30;;;;;;;7.88;1.40;;;21.00;99.90;;;;;;4982191;28;20124;-73
2022/09/15 10:41:05;;;;;;;7.32;1.20;;;21.30;99.90;;;;;;4975394;28;20216;-75
2022/09/15 10:43:42;;;;;;;4.82;1.33;;;21.80;99.90;;;;;;4978680;28;20054;-75
2022/09/15 10:46:35;;;;;;;11.02;1.45;;;22.20;99.90;;;;;;4983152;28;20037;-73
2022/09/15 10:49:12;;;;;;;4.32;1.60;;;22.20;99.90;;;;;;4981451;28;20029;-75
2022/09/15 10:52:05;;;;;;;3.33;1.30;;;22.00;98.60;;;;;;4978265;28;20122;-74
2022/09/15 10:54:46;;;;;;;2.50;1.15;;;21.90;99.20;;;;;;4978164;28;20034;-74
2022/09/15 10:57:37;;;;;;;4.88;1.10;;;22.20;98.50;;;;;;4988617;28;20439;-74
2022/09/15 11:00:06;;;;;;;6.50;1.30;;;22.40;98.80;;;;;;4979411;28;20410;-74
2022/09/15 11:03:02;;;;;;;4.30;1.58;;;22.20;97.00;;;;;;4981221;28;20042;-74
2022/09/15 11:05:47;;;;;;;3.35;1.40;;;22.10;96.90;;;;;;4983118;28;20023;-73
2022/09/15 11:08:34;;;;;;;3.13;1.15;;;21.90;96.50;;;;;;4980512;28;20431;-73
2022/09/15 11:11:21;;;;;;;4.68;1.23;;;21.60;96.50;;;;;;4979307;28;20042;-74
2022/09/15 11:13:52;;;;;;;7.38;1.35;;;21.50;97.30;;;;;;4991940;28;20472;-74
2022/09/15 11:16:39;;;;;;;4.50;1.15;;;21.30;96.70;;;;;;4980749;28;20593;-74
2022/09/15 11:19:21;;;;;;;2.42;1.15;;;21.30;97.20;;;;;;4976195;28;20047;-72
2022/09/15 11:21:51;;;;;;;4.50;1.48;;;21.30;97.10;;;;;;4978301;28;20113;-74
2022/09/15 11:24:40;;;;;;;5.57;1.20;;;21.30;96.40;;;;;;4977821;28;20027;-74
2022/09/15 11:27:27;;;;;;;4.93;1.60;;;21.00;96.80;;;;;;4991374;28;20072;-74
2022/09/15 11:30:01;;;;;;;8.38;1.48;;;20.70;97.90;;;;;;4986916;28;20027;-74
2022/09/15 11:32:37;;;;;;;5.57;1.00;;;20.60;97.80;;;;;;4978539;28;20963;-74
2022/09/15 11:35:33;;;;;;;4.15;1.50;;;20.70;98.70;;;;;;4975896;28;20113;-73
2022/09/15 11:38:41;;;;;;;4.63;1.25;;;20.70;97.80;;;;;;4976735;28;20038;-73
2022/09/15 11:42:06;;;;;;;4.05;1.42;;;20.50;97.90;;;;;;4977075;28;20365;-73
2022/09/15 11:44:38;;;;;;;6.13;1.10;;;20.50;97.00;;;;;;4957340;28;20117;-73
2022/09/15 11:47:03;;;;;;;7.75;1.20;;;20.50;97.10;;;;;;4941575;28;20126;-72
2022/09/15 11:49:56;;;;;;;5.80;1.38;;;20.50;97.50;;;;;;4963462;28;20130;-73
2022/09/15 11:52:58;;;;;;;5.00;1.08;;;20.30;97.20;;;;;;4946741;28;20106;-73
2022/09/15 11:55:33;;;;;;;4.32;1.35;;;20.10;97.70;;;;;;4959266;28;20421;-73
2022/09/15 11:58:09;;;;;;;3.28;1.42;;;20.30;97.70;;;;;;4946749;28;20137;-73
2022/09/15 12:00:43;;;;;;;3.40;1.33;;;20.60;97.70;;;;;;4952931;28;20255;-74
2022/09/15 12:03:27;;;;;;;3.50;0.93;;;20.80;97.70;;;;;;4950781;28;20189;-72
2022/09/15 12:05:57;;;;;;;4.45;1.25;;;20.70;97.40;;;;;;4946437;28;20033;-73
2022/09/15 12:08:49;;;;;;;6.60;1.13;;;20.60;97.80;;;;;;4961688;28;20059;-73
2022/09/15 12:11:23;;;;;;;2.45;1.00;;;20.60;96.70;;;;;;4962242;28;20031;-73
2022/09/15 12:13:51;;;;;;;3.35;0.85;;;20.40;96.40;;;;;;4961099;28;20039;-72
2022/09/15 12:16:19;;;;;;;3.08;0.90;;;20.70;96.20;;;;;;4979824;28;20037;-72
2022/09/15 12:18:53;;;;;;;6.65;0.95;;;20.70;94.20;;;;;;4983259;28;20031;-73
2022/09/15 12:21:32;;;;;;;3.63;0.90;;;20.70;93.60;;;;;;4982692;28;20146;-73
2022/09/15 12:24:09;;;;;;;4.00;1.08;;;20.50;93.90;;;;;;4980788;28;20109;-73
2022/09/15 12:26:36;;;;;;;4.22;1.05;;;20.60;93.90;;;;;;4980750;28;20088;-73
2022/09/15 12:29:23;;;;;;;3.65;0.88;;;20.30;93.40;;;;;;4979363;28;20025;-73
2022/09/15 12:32:27;;;;;;;6.13;1.00;;;20.20;93.40;;;;;;4978843;28;20035;-73
2022/09/15 12:35:14;;;;;;;3.08;0.70;;;20.40;93.60;;;;;;4978741;28;20045;-72
2022/09/15 12:37:58;;;;;;;4.13;0.95;;;20.60;92.30;;;;;;4981101;28;20035;-72
2022/09/15 12:40:35;;;;;;;3.42;1.10;;;20.80;93.40;;;;;;4981296;28;20097;-72
2022/09/15 12:43:23;;;;;;;1.70;0.60;;;21.00;93.60;;;;;;4979644;28;20027;-75
2022/09/15 12:46:02;;;;;;;2.88;0.98;;;21.30;93.20;;;;;;4978464;28;20038;-71
2022/09/15 12:48:34;;;;;;;2.80;1.00;;;21.50;91.20;;;;;;4979263;28;20041;-73
2022/09/15 12:51:06;;;;;;;9.55;0.98;;;21.70;90.50;;;;;;4980166;28;20030;-72
2022/09/15 12:53:36;;;;;;;3.10;0.80;;;21.70;90.60;;;;;;4983475;28;20056;-73
2022/09/15 12:56:07;;;;;;;3.65;0.90;;;21.80;90.50;;;;;;4982195;28;20019;-72
2022/09/15 12:58:46;;;;;;;2.92;1.00;;;21.80;88.50;;;;;;4979461;28;20027;-72
2022/09/15 13:01:17;;;;;;;3.03;1.08;;;22.50;87.00;;;;;;4980768;28;20040;-72
2022/09/15 13:03:47;;;;;;;3.55;1.10;;;22.90;86.10;;;;;;4979351;28;20077;-73